sensor_id;sensor_type;location;lat;lon;timestamp;temperature;humidity
19888;DHT22;10106;51.332;12.336;2022-08-01T00:01:35;20.40;99.90
19888;DHT22;10106;51.332;12.336;2022-08-01T00:04:03;20.40;99.90
19888;DHT22;10106;51.332;12.336;2022-08-01T00:06:30;20.40;99.90
19888;DHT22;10106;51.332;12.336;2022-08-01T00:08:56;20.40;99.90
19888;DHT22;10106;51.332;12.336;2022-08-01T00:11:22;20.50;99.90
19888;DHT22;10106;51.332;12.336;2022-08-01T00:13:48;20.50;99.90
19888;DHT22;10106;51.332;12.336;2022-08-01T00:16:14;20.50;99.90
19888;DHT22;10106;51.332;12.336;2022-08-01T00:18:41;20.50;99.90
19888;DHT22;10106;51.332;12.336;2022-08-01T00:21:07;20.50;99.90
19888;DHT22;10106;51.332;12.336;2022-08-01T00:23:32;20.50;99.90
19888;DHT22;10106;51.332;12.336;2022-08-01T00:25:58;20.50;99.90
19888;DHT22;10106;51.332;12.336;2022-08-01T00:28:24;20.50;99.90
19888;DHT22;10106;51.332;12.336;2022-08-01T00:30:50;20.50;99.90
19888;DHT22;10106;51.332;12.336;2022-08-01T00:33:15;20.50;99.90
19888;DHT22;10106;51.332;12.336;2022-08-01T00:35:41;20.50;99.90
19888;DHT22;10106;51.332;12.336;2022-08-01T00:38:07;20.50;99.90
19888;DHT22;10106;51.332;12.336;2022-08-01T00:40:32;20.50;99.90
19888;DHT22;10106;51.332;12.336;2022-08-01T00:42:58;20.50;99.90
19888;DHT22;10106;51.332;12.336;2022-08-01T00:45:24;20.50;99.90
19888;DHT22;10106;51.332;12.336;2022-08-01T00:47:49;20.50;99.90
19888;DHT22;10106;51.332;12.336;2022-08-01T00:50:15;20.40;99.90
19888;DHT22;10106;51.332;12.336;2022-08-01T00:52:41;20.40;99.90
19888;DHT22;10106;51.332;12.336;2022-08-01T00:55:08;20.30;99.90
19888;DHT22;10106;51.332;12.336;2022-08-01T00:57:35;20.30;99.90
19888;DHT22;10106;51.332;12.336;2022-08-01T01:00:01;20.30;99.90
19888;DHT22;10106;51.332;12.336;2022-08-01T01:02:27;20.20;99.90
19888;DHT22;10106;51.332;12.336;2022-08-01T01:04:53;20.20;99.90
19888;DHT22;10106;51.332;12.336;2022-08-01T01:13:13;20.10;99.90
19888;DHT22;10106;51.332;12.336;2022-08-01T01:15:43;20.10;99.90
19888;DHT22;10106;51.332;12.336;2022-08-01T01:18:14;20.20;99.90
19888;DHT22;10106;51.332;12.336;2022-08-01T01:20:49;20.20;99.90
19888;DHT22;10106;51.332;12.336;2022-08-01T01:23:40;20.30;99.90
19888;DHT22;10106;51.332;12.336;2022-08-01T01:29:14;20.40;99.90
19888;DHT22;10106;51.332;12.336;2022-08-01T01:31:49;20.40;99.90
19888;DHT22;10106;51.332;12.336;2022-08-01T01:34:19;20.40;99.90
19888;DHT22;10106;51.332;12.336;2022-08-01T01:36:46;20.40;99.90
19888;DHT22;10106;51.332;12.336;2022-08-01T01:39:13;20.40;99.90
19888;DHT22;10106;51.332;12.336;2022-08-01T01:41:40;20.40;99.90
19888;DHT22;10106;51.332;12.336;2022-08-01T01:44:09;20.40;99.90
19888;DHT22;10106;51.332;12.336;2022-08-01T01:46:36;20.40;99.90
19888;DHT22;10106;51.332;12.336;2022-08-01T01:49:02;20.40;99.90
19888;DHT22;10106;51.332;12.336;2022-08-01T01:51:28;20.40;99.90
19888;DHT22;10106;51.332;12.336;2022-08-01T01:53:55;20.40;99.90
19888;DHT22;10106;51.332;12.336;2022-08-01T01:56:23;20.50;99.90
19888;DHT22;10106;51.332;12.336;2022-08-01T01:58:52;20.50;99.90
19888;DHT22;10106;51.332;12.336;2022-08-01T02:01:20;20.40;99.90
19888;DHT22;10106;51.332;12.336;2022-08-01T02:03:48;20.40;99.90
19888;DHT22;10106;51.332;12.336;2022-08-01T02:06:16;20.40;99.90
19888;DHT22;10106;51.332;12.336;2022-08-01T02:08:42;20.40;99.90
19888;DHT22;10106;51.332;12.336;2022-08-01T02:11:09;20.30;99.90
19888;DHT22;10106;51.332;12.336;2022-08-01T02:13:52;20.30;99.90
19888;DHT22;10106;51.332;12.336;2022-08-01T02:16:19;20.30;99.90
19888;DHT22;10106;51.332;12.336;2022-08-01T02:18:46;20.30;99.90
19888;DHT22;10106;51.332;12.336;2022-08-01T02:21:13;20.20;99.90
19888;DHT22;10106;51.332;12.336;2022-08-01T02:23:42;20.20;99.90
19888;DHT22;10106;51.332;12.336;2022-08-01T02:26:11;20.20;99.90
19888;DHT22;10106;51.332;12.336;2022-08-01T02:28:53;20.20;99.90
19888;DHT22;10106;51.332;12.336;2022-08-01T02:31:21;20.10;99.90
19888;DHT22;10106;51.332;12.336;2022-08-01T02:34:02;20.10;99.90
19888;DHT22;10106;51.332;12.336;2022-08-01T02:36:30;20.10;99.90
19888;DHT22;10106;51.332;12.336;2022-08-01T02:38:57;20.00;99.90
19888;DHT22;10106;51.332;12.336;2022-08-01T02:41:25;19.90;99.90
19888;DHT22;10106;51.332;12.336;2022-08-01T02:43:53;19.90;99.90
19888;DHT22;10106;51.332;12.336;2022-08-01T02:46:26;19.90;99.90
19888;DHT22;10106;51.332;12.336;2022-08-01T02:48:53;19.90;99.90
19888;DHT22;10106;51.332;12.336;2022-08-01T02:51:22;19.90;99.90
19888;DHT22;10106;51.332;12.336;2022-08-01T02:53:50;19.90;99.90
19888;DHT22;10106;51.332;12.336;2022-08-01T02:56:17;19.90;99.90
19888;DHT22;10106;51.332;12.336;2022-08-01T02:58:44;19.90;99.90
19888;DHT22;10106;51.332;12.336;2022-08-01T03:01:12;19.90;99.90
19888;DHT22;10106;51.332;12.336;2022-08-01T03:03:38;19.90;99.90
19888;DHT22;10106;51.332;12.336;2022-08-01T03:06:05;19.80;99.90
19888;DHT22;10106;51.332;12.336;2022-08-01T03:08:31;19.80;99.90
19888;DHT22;10106;51.332;12.336;2022-08-01T03:10:59;19.80;99.90
19888;DHT22;10106;51.332;12.336;2022-08-01T03:13:26;19.80;99.90
19888;DHT22;10106;51.332;12.336;2022-08-01T03:15:53;19.80;99.90
19888;DHT22;10106;51.332;12.336;2022-08-01T03:18:20;19.80;99.90
19888;DHT22;10106;51.332;12.336;2022-08-01T03:20:49;19.90;99.90
19888;DHT22;10106;51.332;12.336;2022-08-01T03:23:16;19.90;99.90
19888;DHT22;10106;51.332;12.336;2022-08-01T03:25:43;19.80;99.90
19888;DHT22;10106;51.332;12.336;2022-08-01T03:28:12;19.90;99.90
19888;DHT22;10106;51.332;12.336;2022-08-01T03:30:40;19.80;99.90
19888;DHT22;10106;51.332;12.336;2022-08-01T03:33:06;19.80;99.90
19888;DHT22;10106;51.332;12.336;2022-08-01T03:35:37;19.80;99.90
19888;DHT22;10106;51.332;12.336;2022-08-01T03:38:05;19.80;99.90
19888;DHT22;10106;51.332;12.336;2022-08-01T03:40:40;19.80;99.90
19888;DHT22;10106;51.332;12.336;2022-08-01T03:43:15;19.80;99.90
19888;DHT22;10106;51.332;12.336;2022-08-01T03:45:46;19.80;99.90
19888;DHT22;10106;51.332;12.336;2022-08-01T03:48:17;19.80;99.90
19888;DHT22;10106;51.332;12.336;2022-08-01T03:50:46;19.80;99.90
19888;DHT22;10106;51.332;12.336;2022-08-01T03:53:13;19.80;99.90
19888;DHT22;10106;51.332;12.336;2022-08-01T03:55:42;19.80;99.90
19888;DHT22;10106;51.332;12.336;2022-08-01T03:58:09;19.80;99.90
19888;DHT22;10106;51.332;12.336;2022-08-01T04:00:37;19.90;99.90
19888;DHT22;10106;51.332;12.336;2022-08-01T04:03:08;19.80;99.90
19888;DHT22;10106;51.332;12.336;2022-08-01T04:05:34;19.80;99.90
19888;DHT22;10106;51.332;12.336;2022-08-01T04:08:00;19.80;99.90
19888;DHT22;10106;51.332;12.336;2022-08-01T04:10:28;19.70;99.90
19888;DHT22;10106;51.332;12.336;2022-08-01T04:12:54;19.70;99.90
19888;DHT22;10106;51.332;12.336;2022-08-01T04:15:20;19.70;99.90
19888;DHT22;10106;51.332;12.336;2022-08-01T04:17:47;19.70;99.90
19888;DHT22;10106;51.332;12.336;2022-08-01T04:20:13;19.70;99.90
19888;DHT22;10106;51.332;12.336;2022-08-01T04:22:39;19.70;99.90
19888;DHT22;10106;51.332;12.336;2022-08-01T04:25:09;19.70;99.90
19888;DHT22;10106;51.332;12.336;2022-08-01T04:27:39;19.70;99.90
19888;DHT22;10106;51.332;12.336;2022-08-01T04:30:06;19.80;99.90
19888;DHT22;10106;51.332;12.336;2022-08-01T04:32:37;19.80;99.90
19888;DHT22;10106;51.332;12.336;2022-08-01T04:35:07;19.80;99.90
19888;DHT22;10106;51.332;12.336;2022-08-01T04:37:36;19.90;99.90
19888;DHT22;10106;51.332;12.336;2022-08-01T04:40:04;19.90;99.90
19888;DHT22;10106;51.332;12.336;2022-08-01T04:42:33;19.90;99.90
19888;DHT22;10106;51.332;12.336;2022-08-01T04:44:59;19.90;99.90
19888;DHT22;10106;51.332;12.336;2022-08-01T04:47:26;19.90;99.90
19888;DHT22;10106;51.332;12.336;2022-08-01T04:49:52;19.80;99.90
19888;DHT22;10106;51.332;12.336;2022-08-01T04:52:19;19.80;99.90
19888;DHT22;10106;51.332;12.336;2022-08-01T04:54:45;19.90;99.90
19888;DHT22;10106;51.332;12.336;2022-08-01T04:57:12;19.80;99.90
19888;DHT22;10106;51.332;12.336;2022-08-01T04:59:40;19.90;99.90
19888;DHT22;10106;51.332;12.336;2022-08-01T05:07:17;19.90;99.90
19888;DHT22;10106;51.332;12.336;2022-08-01T05:09:43;19.90;99.90
19888;DHT22;10106;51.332;12.336;2022-08-01T05:12:11;20.00;99.90
19888;DHT22;10106;51.332;12.336;2022-08-01T05:14:36;20.10;99.90
19888;DHT22;10106;51.332;12.336;2022-08-01T05:17:04;20.30;99.90
19888;DHT22;10106;51.332;12.336;2022-08-01T05:19:35;20.40;99.90
19888;DHT22;10106;51.332;12.336;2022-08-01T05:22:03;20.50;99.90
19888;DHT22;10106;51.332;12.336;2022-08-01T05:24:34;20.60;99.90
19888;DHT22;10106;51.332;12.336;2022-08-01T05:27:01;20.70;99.90
19888;DHT22;10106;51.332;12.336;2022-08-01T05:29:27;20.70;99.90
19888;DHT22;10106;51.332;12.336;2022-08-01T05:31:53;20.60;99.90
19888;DHT22;10106;51.332;12.336;2022-08-01T05:34:19;20.70;99.90
19888;DHT22;10106;51.332;12.336;2022-08-01T05:36:45;20.70;99.90
19888;DHT22;10106;51.332;12.336;2022-08-01T05:39:11;20.80;99.90
19888;DHT22;10106;51.332;12.336;2022-08-01T05:41:37;21.10;99.90
19888;DHT22;10106;51.332;12.336;2022-08-01T05:44:04;21.50;99.90
19888;DHT22;10106;51.332;12.336;2022-08-01T05:46:30;22.10;99.90
19888;DHT22;10106;51.332;12.336;2022-08-01T05:48:59;22.70;99.90
19888;DHT22;10106;51.332;12.336;2022-08-01T05:51:25;23.00;99.90
19888;DHT22;10106;51.332;12.336;2022-08-01T05:53:51;23.00;99.90
19888;DHT22;10106;51.332;12.336;2022-08-01T05:56:17;23.20;99.90
19888;DHT22;10106;51.332;12.336;2022-08-01T05:58:43;23.40;99.90
19888;DHT22;10106;51.332;12.336;2022-08-01T06:01:08;23.90;99.90
19888;DHT22;10106;51.332;12.336;2022-08-01T06:03:34;23.80;99.90
19888;DHT22;10106;51.332;12.336;2022-08-01T06:06:00;23.60;99.90
19888;DHT22;10106;51.332;12.336;2022-08-01T06:08:26;23.30;99.90
19888;DHT22;10106;51.332;12.336;2022-08-01T06:10:52;23.00;99.90
19888;DHT22;10106;51.332;12.336;2022-08-01T06:13:18;22.70;99.90
19888;DHT22;10106;51.332;12.336;2022-08-01T06:15:45;22.60;99.90
19888;DHT22;10106;51.332;12.336;2022-08-01T06:18:11;22.60;99.90
19888;DHT22;10106;51.332;12.336;2022-08-01T06:20:40;22.50;99.90
19888;DHT22;10106;51.332;12.336;2022-08-01T06:23:14;22.40;99.90
19888;DHT22;10106;51.332;12.336;2022-08-01T06:25:42;22.40;99.90
19888;DHT22;10106;51.332;12.336;2022-08-01T06:28:08;22.40;99.90
19888;DHT22;10106;51.332;12.336;2022-08-01T06:30:33;22.20;99.90
19888;DHT22;10106;51.332;12.336;2022-08-01T06:32:59;22.20;99.90
19888;DHT22;10106;51.332;12.336;2022-08-01T06:35:28;22.30;99.90
19888;DHT22;10106;51.332;12.336;2022-08-01T06:37:55;22.30;99.90
19888;DHT22;10106;51.332;12.336;2022-08-01T06:40:21;22.30;99.90
19888;DHT22;10106;51.332;12.336;2022-08-01T06:42:47;22.30;99.90
19888;DHT22;10106;51.332;12.336;2022-08-01T06:45:13;22.20;99.90
19888;DHT22;10106;51.332;12.336;2022-08-01T06:47:41;22.40;99.90
19888;DHT22;10106;51.332;12.336;2022-08-01T06:50:08;22.70;99.90
19888;DHT22;10106;51.332;12.336;2022-08-01T06:52:35;23.20;99.90
19888;DHT22;10106;51.332;12.336;2022-08-01T06:55:01;23.90;99.90
19888;DHT22;10106;51.332;12.336;2022-08-01T06:57:27;24.50;99.90
19888;DHT22;10106;51.332;12.336;2022-08-01T06:59:53;24.70;99.90
19888;DHT22;10106;51.332;12.336;2022-08-01T07:02:19;25.10;99.90
19888;DHT22;10106;51.332;12.336;2022-08-01T07:04:44;25.10;99.90
19888;DHT22;10106;51.332;12.336;2022-08-01T07:07:10;25.20;99.90
19888;DHT22;10106;51.332;12.336;2022-08-01T07:09:36;26.30;99.90
19888;DHT22;10106;51.332;12.336;2022-08-01T07:12:02;28.30;99.90
19888;DHT22;10106;51.332;12.336;2022-08-01T07:14:28;28.70;99.90
19888;DHT22;10106;51.332;12.336;2022-08-01T07:16:53;27.80;99.90
19888;DHT22;10106;51.332;12.336;2022-08-01T07:19:19;27.10;99.90
19888;DHT22;10106;51.332;12.336;2022-08-01T07:21:44;26.40;99.90
19888;DHT22;10106;51.332;12.336;2022-08-01T07:24:13;25.80;99.90
19888;DHT22;10106;51.332;12.336;2022-08-01T07:26:43;25.70;99.90
19888;DHT22;10106;51.332;12.336;2022-08-01T07:29:09;25.80;99.90
19888;DHT22;10106;51.332;12.336;2022-08-01T07:31:35;26.60;99.90
19888;DHT22;10106;51.332;12.336;2022-08-01T07:34:01;26.70;99.90
19888;DHT22;10106;51.332;12.336;2022-08-01T07:36:27;26.60;99.90
19888;DHT22;10106;51.332;12.336;2022-08-01T07:38:52;26.40;99.90
19888;DHT22;10106;51.332;12.336;2022-08-01T07:41:18;25.60;99.90
19888;DHT22;10106;51.332;12.336;2022-08-01T07:43:43;25.30;99.90
19888;DHT22;10106;51.332;12.336;2022-08-01T07:46:09;24.90;99.90
19888;DHT22;10106;51.332;12.336;2022-08-01T07:48:35;24.60;99.90
19888;DHT22;10106;51.332;12.336;2022-08-01T07:51:00;24.40;99.90
19888;DHT22;10106;51.332;12.336;2022-08-01T07:53:26;24.00;99.90
19888;DHT22;10106;51.332;12.336;2022-08-01T07:55:52;23.40;99.90
19888;DHT22;10106;51.332;12.336;2022-08-01T07:58:17;22.90;99.90
19888;DHT22;10106;51.332;12.336;2022-08-01T08:00:43;22.70;99.90
19888;DHT22;10106;51.332;12.336;2022-08-01T08:03:09;22.50;99.90
19888;DHT22;10106;51.332;12.336;2022-08-01T08:05:34;22.60;99.90
19888;DHT22;10106;51.332;12.336;2022-08-01T08:08:08;22.90;99.90
19888;DHT22;10106;51.332;12.336;2022-08-01T08:10:34;23.20;99.90
19888;DHT22;10106;51.332;12.336;2022-08-01T08:13:00;23.20;99.90
19888;DHT22;10106;51.332;12.336;2022-08-01T08:15:27;23.50;99.90
19888;DHT22;10106;51.332;12.336;2022-08-01T08:17:52;24.00;99.90
19888;DHT22;10106;51.332;12.336;2022-08-01T08:20:18;25.80;99.90
19888;DHT22;10106;51.332;12.336;2022-08-01T08:22:44;28.30;99.90
19888;DHT22;10106;51.332;12.336;2022-08-01T08:25:09;28.80;99.90
19888;DHT22;10106;51.332;12.336;2022-08-01T08:27:36;28.90;99.90
19888;DHT22;10106;51.332;12.336;2022-08-01T08:30:02;28.20;99.90
19888;DHT22;10106;51.332;12.336;2022-08-01T08:32:28;27.50;99.90
19888;DHT22;10106;51.332;12.336;2022-08-01T08:34:53;28.00;99.90
19888;DHT22;10106;51.332;12.336;2022-08-01T08:37:19;28.10;99.90
19888;DHT22;10106;51.332;12.336;2022-08-01T08:39:45;27.70;99.90
19888;DHT22;10106;51.332;12.336;2022-08-01T08:42:11;27.10;99.90
19888;DHT22;10106;51.332;12.336;2022-08-01T08:44:40;26.40;99.90
19888;DHT22;10106;51.332;12.336;2022-08-01T08:47:08;25.80;99.90
19888;DHT22;10106;51.332;12.336;2022-08-01T08:49:36;25.80;99.90
19888;DHT22;10106;51.332;12.336;2022-08-01T08:52:03;26.10;99.90
19888;DHT22;10106;51.332;12.336;2022-08-01T08:54:30;27.00;99.90
19888;DHT22;10106;51.332;12.336;2022-08-01T08:56:57;27.70;99.90
19888;DHT22;10106;51.332;12.336;2022-08-01T08:59:23;27.90;99.90
19888;DHT22;10106;51.332;12.336;2022-08-01T09:01:50;28.00;99.90
19888;DHT22;10106;51.332;12.336;2022-08-01T09:04:16;27.90;99.90
19888;DHT22;10106;51.332;12.336;2022-08-01T09:06:42;28.00;99.90
19888;DHT22;10106;51.332;12.336;2022-08-01T09:09:08;27.60;99.90
19888;DHT22;10106;51.332;12.336;2022-08-01T09:11:35;27.20;99.90
19888;DHT22;10106;51.332;12.336;2022-08-01T09:14:12;27.10;99.90
19888;DHT22;10106;51.332;12.336;2022-08-01T09:16:58;26.60;99.90
19888;DHT22;10106;51.332;12.336;2022-08-01T09:19:38;26.10;99.90
19888;DHT22;10106;51.332;12.336;2022-08-01T09:22:06;26.00;99.90
19888;DHT22;10106;51.332;12.336;2022-08-01T09:24:39;26.50;99.90
19888;DHT22;10106;51.332;12.336;2022-08-01T09:27:36;29.00;99.90
19888;DHT22;10106;51.332;12.336;2022-08-01T09:30:12;29.90;99.90
19888;DHT22;10106;51.332;12.336;2022-08-01T09:32:57;29.60;99.90
19888;DHT22;10106;51.332;12.336;2022-08-01T09:35:31;28.70;99.90
19888;DHT22;10106;51.332;12.336;2022-08-01T09:38:22;27.70;99.90
19888;DHT22;10106;51.332;12.336;2022-08-01T09:40:57;26.50;99.90
19888;DHT22;10106;51.332;12.336;2022-08-01T09:43:27;25.90;99.90
19888;DHT22;10106;51.332;12.336;2022-08-01T09:45:55;25.60;99.90
19888;DHT22;10106;51.332;12.336;2022-08-01T09:48:21;25.40;99.90
19888;DHT22;10106;51.332;12.336;2022-08-01T09:50:49;25.60;99.90
19888;DHT22;10106;51.332;12.336;2022-08-01T09:53:15;25.90;99.90
19888;DHT22;10106;51.332;12.336;2022-08-01T09:55:44;27.00;99.90
19888;DHT22;10106;51.332;12.336;2022-08-01T09:58:11;29.00;99.90
19888;DHT22;10106;51.332;12.336;2022-08-01T10:00:38;29.70;99.90
19888;DHT22;10106;51.332;12.336;2022-08-01T10:03:25;29.10;99.90
19888;DHT22;10106;51.332;12.336;2022-08-01T10:05:55;28.90;99.90
19888;DHT22;10106;51.332;12.336;2022-08-01T10:08:22;28.60;99.90
19888;DHT22;10106;51.332;12.336;2022-08-01T10:11:11;27.70;99.90
19888;DHT22;10106;51.332;12.336;2022-08-01T10:13:37;27.10;99.90
19888;DHT22;10106;51.332;12.336;2022-08-01T10:16:03;26.90;99.90
19888;DHT22;10106;51.332;12.336;2022-08-01T10:18:32;26.90;99.90
19888;DHT22;10106;51.332;12.336;2022-08-01T10:21:02;27.50;99.90
19888;DHT22;10106;51.332;12.336;2022-08-01T10:23:33;27.90;99.90
19888;DHT22;10106;51.332;12.336;2022-08-01T10:26:00;28.40;99.90
19888;DHT22;10106;51.332;12.336;2022-08-01T10:28:30;28.40;99.90
19888;DHT22;10106;51.332;12.336;2022-08-01T10:30:57;28.60;99.90
19888;DHT22;10106;51.332;12.336;2022-08-01T10:33:24;28.20;99.90
19888;DHT22;10106;51.332;12.336;2022-08-01T10:35:51;27.50;99.90
19888;DHT22;10106;51.332;12.336;2022-08-01T10:38:17;27.50;99.90
19888;DHT22;10106;51.332;12.336;2022-08-01T10:40:52;27.50;99.90
19888;DHT22;10106;51.332;12.336;2022-08-01T10:43:24;27.40;99.90
19888;DHT22;10106;51.332;12.336;2022-08-01T10:45:50;27.60;99.90
19888;DHT22;10106;51.332;12.336;2022-08-01T10:48:29;27.50;99.90
19888;DHT22;10106;51.332;12.336;2022-08-01T10:50:59;27.40;99.90
19888;DHT22;10106;51.332;12.336;2022-08-01T10:53:26;27.30;99.90
19888;DHT22;10106;51.332;12.336;2022-08-01T10:56:05;27.60;99.90
19888;DHT22;10106;51.332;12.336;2022-08-01T10:58:37;27.90;99.90
19888;DHT22;10106;51.332;12.336;2022-08-01T11:01:18;28.20;99.90
19888;DHT22;10106;51.332;12.336;2022-08-01T11:04:10;28.50;99.90
19888;DHT22;10106;51.332;12.336;2022-08-01T11:12:17;27.90;99.00
19888;DHT22;10106;51.332;12.336;2022-08-01T11:17:44;27.20;99.90
19888;DHT22;10106;51.332;12.336;2022-08-01T11:23:14;27.50;99.90
19888;DHT22;10106;51.332;12.336;2022-08-01T11:30:56;27.60;99.10
19888;DHT22;10106;51.332;12.336;2022-08-01T11:38:46;28.60;98.20
19888;DHT22;10106;51.332;12.336;2022-08-01T11:49:29;27.20;99.90
19888;DHT22;10106;51.332;12.336;2022-08-01T11:52:12;27.70;99.90
19888;DHT22;10106;51.332;12.336;2022-08-01T11:54:53;27.90;99.90
19888;DHT22;10106;51.332;12.336;2022-08-01T11:57:31;28.20;99.90
19888;DHT22;10106;51.332;12.336;2022-08-01T12:00:01;28.10;99.90
19888;DHT22;10106;51.332;12.336;2022-08-01T12:02:32;27.80;99.90
19888;DHT22;10106;51.332;12.336;2022-08-01T12:07:49;27.20;99.90
19888;DHT22;10106;51.332;12.336;2022-08-01T12:10:17;26.70;99.90
19888;DHT22;10106;51.332;12.336;2022-08-01T12:12:46;26.40;99.90
19888;DHT22;10106;51.332;12.336;2022-08-01T12:15:14;26.30;99.90
19888;DHT22;10106;51.332;12.336;2022-08-01T12:17:42;26.20;99.90
19888;DHT22;10106;51.332;12.336;2022-08-01T12:20:11;26.10;99.90
19888;DHT22;10106;51.332;12.336;2022-08-01T12:22:40;26.00;99.90
19888;DHT22;10106;51.332;12.336;2022-08-01T12:25:11;26.30;99.90
19888;DHT22;10106;51.332;12.336;2022-08-01T12:27:39;26.70;99.90
19888;DHT22;10106;51.332;12.336;2022-08-01T12:30:10;26.90;99.90
19888;DHT22;10106;51.332;12.336;2022-08-01T12:32:38;27.10;99.90
19888;DHT22;10106;51.332;12.336;2022-08-01T12:37:41;27.20;99.90
19888;DHT22;10106;51.332;12.336;2022-08-01T12:40:10;27.00;99.90
19888;DHT22;10106;51.332;12.336;2022-08-01T12:42:49;27.10;99.90
19888;DHT22;10106;51.332;12.336;2022-08-01T12:45:21;27.10;99.90
19888;DHT22;10106;51.332;12.336;2022-08-01T12:47:49;27.20;99.90
19888;DHT22;10106;51.332;12.336;2022-08-01T12:50:19;27.40;99.90
19888;DHT22;10106;51.332;12.336;2022-08-01T12:52:45;27.10;99.90
19888;DHT22;10106;51.332;12.336;2022-08-01T12:55:20;26.90;99.90
19888;DHT22;10106;51.332;12.336;2022-08-01T12:57:50;26.70;99.90
19888;DHT22;10106;51.332;12.336;2022-08-01T13:00:23;26.70;99.90
19888;DHT22;10106;51.332;12.336;2022-08-01T13:03:09;26.80;99.90
19888;DHT22;10106;51.332;12.336;2022-08-01T13:05:49;26.80;99.90
19888;DHT22;10106;51.332;12.336;2022-08-01T13:08:34;26.90;99.90
19888;DHT22;10106;51.332;12.336;2022-08-01T13:11:11;26.80;99.90
19888;DHT22;10106;51.332;12.336;2022-08-01T13:13:44;26.90;99.90
19888;DHT22;10106;51.332;12.336;2022-08-01T13:16:12;26.80;99.90
19888;DHT22;10106;51.332;12.336;2022-08-01T13:18:38;26.80;99.90
19888;DHT22;10106;51.332;12.336;2022-08-01T13:21:21;26.90;99.90
19888;DHT22;10106;51.332;12.336;2022-08-01T13:24:07;27.20;99.90
19888;DHT22;10106;51.332;12.336;2022-08-01T13:26:44;27.40;99.90
19888;DHT22;10106;51.332;12.336;2022-08-01T13:29:12;27.10;99.90
19888;DHT22;10106;51.332;12.336;2022-08-01T13:31:39;26.90;99.90
19888;DHT22;10106;51.332;12.336;2022-08-01T13:34:05;26.90;99.90
19888;DHT22;10106;51.332;12.336;2022-08-01T13:36:31;26.80;99.90
19888;DHT22;10106;51.332;12.336;2022-08-01T13:39:00;26.60;99.90
19888;DHT22;10106;51.332;12.336;2022-08-01T13:41:45;26.70;99.90
19888;DHT22;10106;51.332;12.336;2022-08-01T13:44:11;26.60;99.90
19888;DHT22;10106;51.332;12.336;2022-08-01T13:46:37;27.00;99.90
19888;DHT22;10106;51.332;12.336;2022-08-01T13:49:04;27.20;99.90
19888;DHT22;10106;51.332;12.336;2022-08-01T13:51:30;27.00;99.90
19888;DHT22;10106;51.332;12.336;2022-08-01T13:53:55;26.80;99.90
19888;DHT22;10106;51.332;12.336;2022-08-01T13:56:23;26.70;99.90
19888;DHT22;10106;51.332;12.336;2022-08-01T13:58:50;26.60;99.90
19888;DHT22;10106;51.332;12.336;2022-08-01T14:01:16;26.40;99.90
19888;DHT22;10106;51.332;12.336;2022-08-01T14:03:41;26.60;99.90
19888;DHT22;10106;51.332;12.336;2022-08-01T14:06:07;26.70;99.90
19888;DHT22;10106;51.332;12.336;2022-08-01T14:08:33;26.80;99.90
19888;DHT22;10106;51.332;12.336;2022-08-01T14:10:59;26.50;99.90
19888;DHT22;10106;51.332;12.336;2022-08-01T14:13:28;26.50;99.90
19888;DHT22;10106;51.332;12.336;2022-08-01T14:15:54;26.60;99.90
19888;DHT22;10106;51.332;12.336;2022-08-01T14:18:20;26.70;99.90
19888;DHT22;10106;51.332;12.336;2022-08-01T14:20:46;26.90;99.90
19888;DHT22;10106;51.332;12.336;2022-08-01T14:23:12;27.00;99.90
19888;DHT22;10106;51.332;12.336;2022-08-01T14:25:38;26.90;99.90
19888;DHT22;10106;51.332;12.336;2022-08-01T14:28:04;26.60;99.90
19888;DHT22;10106;51.332;12.336;2022-08-01T14:30:32;26.40;99.90
19888;DHT22;10106;51.332;12.336;2022-08-01T14:32:57;26.50;99.90
19888;DHT22;10106;51.332;12.336;2022-08-01T14:35:23;26.40;99.90
19888;DHT22;10106;51.332;12.336;2022-08-01T14:37:49;26.30;99.90
19888;DHT22;10106;51.332;12.336;2022-08-01T14:40:14;26.20;99.90
19888;DHT22;10106;51.332;12.336;2022-08-01T14:42:40;26.00;99.90
19888;DHT22;10106;51.332;12.336;2022-08-01T14:45:06;26.00;99.90
19888;DHT22;10106;51.332;12.336;2022-08-01T14:47:37;26.20;99.90
19888;DHT22;10106;51.332;12.336;2022-08-01T14:50:04;26.30;99.90
19888;DHT22;10106;51.332;12.336;2022-08-01T14:52:32;26.20;99.90
19888;DHT22;10106;51.332;12.336;2022-08-01T14:54:57;26.10;99.90
19888;DHT22;10106;51.332;12.336;2022-08-01T14:57:23;26.10;99.90
19888;DHT22;10106;51.332;12.336;2022-08-01T14:59:49;26.10;99.90
19888;DHT22;10106;51.332;12.336;2022-08-01T15:04:43;25.80;99.90
19888;DHT22;10106;51.332;12.336;2022-08-01T15:07:10;25.70;99.90
19888;DHT22;10106;51.332;12.336;2022-08-01T15:09:36;25.70;99.90
19888;DHT22;10106;51.332;12.336;2022-08-01T15:12:02;25.60;99.90
19888;DHT22;10106;51.332;12.336;2022-08-01T15:14:28;25.60;99.90
19888;DHT22;10106;51.332;12.336;2022-08-01T15:17:25;25.70;99.90
19888;DHT22;10106;51.332;12.336;2022-08-01T15:19:52;25.90;99.90
19888;DHT22;10106;51.332;12.336;2022-08-01T15:22:19;26.00;99.90
19888;DHT22;10106;51.332;12.336;2022-08-01T15:24:47;26.10;99.90
19888;DHT22;10106;51.332;12.336;2022-08-01T15:27:14;25.90;99.90
19888;DHT22;10106;51.332;12.336;2022-08-01T15:29:40;25.80;99.90
19888;DHT22;10106;51.332;12.336;2022-08-01T15:32:06;25.60;99.90
19888;DHT22;10106;51.332;12.336;2022-08-01T15:34:36;25.60;99.90
19888;DHT22;10106;51.332;12.336;2022-08-01T15:37:05;25.60;99.90
19888;DHT22;10106;51.332;12.336;2022-08-01T15:39:32;25.70;99.90
19888;DHT22;10106;51.332;12.336;2022-08-01T15:42:00;25.70;99.90
19888;DHT22;10106;51.332;12.336;2022-08-01T15:44:27;25.70;99.90
19888;DHT22;10106;51.332;12.336;2022-08-01T15:46:53;25.70;99.90
19888;DHT22;10106;51.332;12.336;2022-08-01T15:49:18;25.70;99.90
19888;DHT22;10106;51.332;12.336;2022-08-01T15:51:48;25.60;99.90
19888;DHT22;10106;51.332;12.336;2022-08-01T15:54:14;25.60;99.90
19888;DHT22;10106;51.332;12.336;2022-08-01T15:56:40;25.50;99.90
19888;DHT22;10106;51.332;12.336;2022-08-01T15:59:06;25.50;99.90
19888;DHT22;10106;51.332;12.336;2022-08-01T16:01:32;25.50;99.90
19888;DHT22;10106;51.332;12.336;2022-08-01T16:03:57;25.50;99.90
19888;DHT22;10106;51.332;12.336;2022-08-01T16:06:23;25.50;99.90
19888;DHT22;10106;51.332;12.336;2022-08-01T16:08:49;25.70;99.90
19888;DHT22;10106;51.332;12.336;2022-08-01T16:11:16;25.50;99.90
19888;DHT22;10106;51.332;12.336;2022-08-01T16:13:42;25.50;99.90
19888;DHT22;10106;51.332;12.336;2022-08-01T16:16:08;25.50;99.90